Time;durP1;ratioP1;P1;durP2;ratioP2;P2;SDS_P1;SDS_P2;PMS_P1;PMS_P2;Temp;Humidity;BMP_temperature;BMP_pressure;BME280_temperature;BME280_humidity;BME280_pressure;Samples;Min_cycle;Max_cycle;Signal;HPM_P1;HPM_P2
2023/09/13 00:02:23;;;;;;;7.15;2.40;;;22.10;99.90;;;;;;5095870;27;20536;-81
2023/09/13 00:04:49;;;;;;;6.30;1.95;;;22.20;99.90;;;;;;5099351;27;20074;-83
2023/09/13 00:07:14;;;;;;;6.07;2.13;;;22.20;99.90;;;;;;5099311;27;20035;-81
2023/09/13 00:09:41;;;;;;;6.13;2.20;;;22.20;99.90;;;;;;5114147;27;20091;-81
2023/09/13 00:12:11;;;;;;;3.75;1.80;;;22.10;99.90;;;;;;5105056;27;20034;-83
2023/09/13 00:14:37;;;;;;;4.70;2.10;;;22.00;99.90;;;;;;5115123;27;20039;-81
2023/09/13 00:17:03;;;;;;;7.50;2.40;;;22.10;99.90;;;;;;5128369;27;20050;-82
2023/09/13 00:19:28;;;;;;;5.50;2.40;;;21.90;99.90;;;;;;5097728;27;20073;-83
2023/09/13 00:21:54;;;;;;;5.40;2.45;;;22.00;99.90;;;;;;5099086;27;20031;-81
2023/09/13 00:24:20;;;;;;;4.55;1.90;;;22.00;99.90;;;;;;5115164;27;20039;-80
2023/09/13 00:26:46;;;;;;;6.30;1.90;;;21.80;99.90;;;;;;5115073;27;20046;-79
2023/09/13 00:29:12;;;;;;;3.17;1.55;;;21.80;99.90;;;;;;5122580;27;20363;-81
2023/09/13 00:31:37;;;;;;;5.07;1.88;;;21.80;99.90;;;;;;5102936;27;20396;-79
2023/09/13 00:34:03;;;;;;;6.13;2.22;;;21.80;99.90;;;;;;5127543;27;20034;-81
2023/09/13 00:36:29;;;;;;;5.85;1.65;;;21.80;99.90;;;;;;5111210;27;20163;-81
2023/09/13 00:38:55;;;;;;;5.55;1.75;;;21.80;99.90;;;;;;5104503;27;20039;-83
2023/09/13 00:41:21;;;;;;;6.30;1.80;;;21.70;99.90;;;;;;5098747;27;20459;-81
2023/09/13 00:43:48;;;;;;;6.80;1.80;;;21.70;99.90;;;;;;5103863;27;20085;-80
2023/09/13 00:46:14;;;;;;;6.35;1.83;;;21.60;99.90;;;;;;5123275;27;20560;-84
2023/09/13 00:48:44;;;;;;;4.10;1.80;;;21.60;99.90;;;;;;5120131;27;20042;-81
2023/09/13 00:51:11;;;;;;;5.93;1.80;;;21.60;99.90;;;;;;5097632;27;20159;-81
2023/09/13 00:53:36;;;;;;;3.53;1.60;;;21.70;99.90;;;;;;5104471;27;20031;-82
2023/09/13 00:56:03;;;;;;;5.82;1.60;;;21.60;99.90;;;;;;5099375;27;20107;-81
2023/09/13 00:58:30;;;;;;;5.55;2.10;;;21.70;99.90;;;;;;5098773;27;20544;-82
2023/09/13 01:00:56;;;;;;;7.15;2.30;;;21.70;99.90;;;;;;5102823;27;20027;-83
2023/09/13 01:03:23;;;;;;;7.25;2.22;;;21.70;99.90;;;;;;5107163;27;20035;-84
2023/09/13 01:05:54;;;;;;;8.32;1.98;;;21.60;99.90;;;;;;5116724;27;20034;-82
2023/09/13 01:08:23;;;;;;;7.18;2.22;;;21.60;99.90;;;;;;5104185;27;20046;-82
2023/09/13 01:10:49;;;;;;;7.20;2.05;;;21.70;99.90;;;;;;5118469;27;20031;-83
2023/09/13 01:13:14;;;;;;;4.47;1.83;;;21.60;99.90;;;;;;5107052;27;20041;-82
2023/09/13 01:15:57;;;;;;;6.13;1.60;;;21.50;99.90;;;;;;5097870;27;20078;-82
2023/09/13 01:18:35;;;;;;;5.32;1.75;;;21.60;99.90;;;;;;5107209;27;20039;-84
2023/09/13 01:21:12;;;;;;;5.10;2.15;;;21.50;99.90;;;;;;5098194;27;20043;-83
2023/09/13 01:24:15;;;;;;;5.22;1.88;;;21.50;99.90;;;;;;5109175;27;20083;-80
2023/09/13 01:27:18;;;;;;;5.07;1.90;;;21.50;99.90;;;;;;5114379;27;20096;-81
2023/09/13 01:29:45;;;;;;;6.82;1.92;;;21.40;99.90;;;;;;5126005;27;20031;-81
2023/09/13 01:32:11;;;;;;;9.18;2.60;;;21.40;99.90;;;;;;5068649;27;20097;-83
2023/09/13 01:34:37;;;;;;;6.05;1.80;;;21.40;99.90;;;;;;5111269;27;20477;-80
2023/09/13 01:37:04;;;;;;;7.93;2.10;;;21.40;99.90;;;;;;5118156;27;20075;-82
2023/09/13 01:39:30;;;;;;;5.93;1.90;;;21.40;99.90;;;;;;5122394;27;20042;-83
2023/09/13 01:42:06;;;;;;;8.55;2.22;;;21.40;99.90;;;;;;5095206;27;20039;-82
2023/09/13 01:44:35;;;;;;;5.07;1.77;;;21.40;99.90;;;;;;5121176;27;20039;-84
2023/09/13 01:47:04;;;;;;;7.70;2.10;;;21.40;99.90;;;;;;5097816;27;20043;-86
2023/09/13 01:49:32;;;;;;;7.95;1.85;;;21.50;99.90;;;;;;5098658;27;20023;-80
2023/09/13 01:51:58;;;;;;;5.28;1.65;;;21.50;99.90;;;;;;5112111;27;20388;-83
2023/09/13 01:54:23;;;;;;;6.28;1.67;;;21.50;99.90;;;;;;5122666;27;20130;-82
2023/09/13 01:56:49;;;;;;;5.43;1.85;;;21.40;99.90;;;;;;5111674;27;20125;-84
2023/09/13 01:59:15;;;;;;;5.15;2.10;;;21.40;99.90;;;;;;5117841;27;20042;-83
2023/09/13 02:01:41;;;;;;;5.75;1.80;;;21.30;99.90;;;;;;5101596;27;20062;-87
2023/09/13 02:04:07;;;;;;;4.15;2.20;;;21.40;99.90;;;;;;5097010;27;20095;-81
2023/09/13 02:06:39;;;;;;;8.52;1.92;;;21.30;99.90;;;;;;5116585;27;20035;-82
2023/09/13 02:09:05;;;;;;;6.47;1.90;;;21.30;99.90;;;;;;5136774;27;20079;-88
2023/09/13 02:11:31;;;;;;;3.72;1.77;;;21.30;99.90;;;;;;5109501;27;20121;-87
2023/09/13 02:13:57;;;;;;;5.25;1.77;;;21.50;99.90;;;;;;5096986;27;20049;-87
2023/09/13 02:16:24;;;;;;;4.63;2.00;;;21.30;99.90;;;;;;5114930;27;20039;-84
2023/09/13 02:18:50;;;;;;;5.05;1.60;;;21.30;99.90;;;;;;5096819;27;20042;-83
2023/09/13 02:21:16;;;;;;;6.47;2.00;;;21.30;99.90;;;;;;5104339;27;20102;-86
2023/09/13 02:23:43;;;;;;;5.63;2.10;;;21.30;99.90;;;;;;5103955;27;20057;-86
2023/09/13 02:26:22;;;;;;;5.25;2.00;;;21.40;99.90;;;;;;5112440;27;20027;-82
2023/09/13 02:28:48;;;;;;;4.80;1.63;;;21.30;99.90;;;;;;5145167;27;20037;-82
2023/09/13 02:31:25;;;;;;;7.90;1.83;;;21.30;99.90;;;;;;5123689;27;20039;-82
2023/09/13 02:33:52;;;;;;;6.10;2.00;;;21.30;99.90;;;;;;5132702;27;20050;-83
2023/09/13 02:36:18;;;;;;;6.53;2.20;;;21.40;99.90;;;;;;5107994;27;20601;-86
2023/09/13 02:38:43;;;;;;;4.63;1.90;;;21.40;99.90;;;;;;5119950;27;20049;-87
2023/09/13 02:41:09;;;;;;;4.10;2.05;;;21.30;99.90;;;;;;5090662;27;20133;-84
2023/09/13 02:43:35;;;;;;;8.02;2.30;;;21.40;99.90;;;;;;5105624;27;20487;-82
2023/09/13 02:46:00;;;;;;;4.90;2.00;;;21.30;99.90;;;;;;5110404;27;20472;-83
2023/09/13 02:48:26;;;;;;;4.40;2.10;;;21.40;99.90;;;;;;5100850;27;20038;-84
2023/09/13 02:50:52;;;;;;;5.68;2.10;;;21.40;99.90;;;;;;5089963;27;20055;-82
2023/09/13 02:53:18;;;;;;;3.78;2.05;;;21.30;99.90;;;;;;5110730;27;20039;-82
2023/09/13 02:55:43;;;;;;;6.63;2.47;;;21.40;99.90;;;;;;5072561;27;20035;-82
2023/09/13 02:58:09;;;;;;;5.65;1.75;;;21.30;99.90;;;;;;5116306;27;20042;-81
2023/09/13 03:00:36;;;;;;;5.80;2.15;;;21.40;99.90;;;;;;5072688;27;20035;-83
2023/09/13 03:03:02;;;;;;;7.30;2.40;;;21.30;99.90;;;;;;5104557;27;20661;-82
2023/09/13 03:05:27;;;;;;;5.40;2.25;;;21.40;99.90;;;;;;5103878;27;20117;-83
2023/09/13 03:07:56;;;;;;;4.47;2.13;;;21.50;99.90;;;;;;5087571;27;20039;-81
2023/09/13 03:10:22;;;;;;;6.88;2.00;;;21.40;99.90;;;;;;5096784;27;20035;-83
2023/09/13 03:12:48;;;;;;;4.50;1.90;;;21.40;99.90;;;;;;5105720;27;20061;-85
2023/09/13 03:15:13;;;;;;;7.22;1.65;;;21.50;99.90;;;;;;5096519;27;20081;-84
2023/09/13 03:17:39;;;;;;;4.15;1.77;;;21.30;99.90;;;;;;5086454;27;20093;-81
2023/09/13 03:20:09;;;;;;;6.55;2.15;;;21.40;99.90;;;;;;5091820;27;20129;-82
2023/09/13 03:22:34;;;;;;;4.75;1.52;;;21.40;99.90;;;;;;5092691;27;20039;-82
2023/09/13 03:25:00;;;;;;;7.07;1.60;;;21.30;99.90;;;;;;5062883;27;20394;-83
2023/09/13 03:27:26;;;;;;;7.32;1.60;;;21.40;99.90;;;;;;5087095;28;20036;-83
2023/09/13 03:29:51;;;;;;;6.55;1.90;;;21.20;99.90;;;;;;5140110;27;20121;-84
2023/09/13 03:32:17;;;;;;;7.22;2.17;;;21.30;99.90;;;;;;5115543;27;20038;-82
2023/09/13 03:34:43;;;;;;;5.85;1.80;;;21.20;99.90;;;;;;5094122;27;20037;-81
2023/09/13 03:37:09;;;;;;;7.13;1.83;;;21.20;99.90;;;;;;5105459;28;20092;-80
2023/09/13 03:39:34;;;;;;;7.18;1.80;;;21.30;99.90;;;;;;5096639;28;20039;-82
2023/09/13 03:42:00;;;;;;;4.60;1.30;;;21.20;99.90;;;;;;5093044;28;20645;-82
2023/09/13 03:44:26;;;;;;;5.72;1.60;;;21.10;99.90;;;;;;5102839;27;20046;-80
2023/09/13 03:46:52;;;;;;;8.02;1.80;;;21.00;99.90;;;;;;5064201;27;20038;-81
2023/09/13 03:49:17;;;;;;;3.80;1.65;;;21.00;99.90;;;;;;5109858;27;20080;-80
2023/09/13 03:51:43;;;;;;;5.45;1.67;;;20.90;99.90;;;;;;5081567;27;20479;-81
2023/09/13 03:54:09;;;;;;;5.95;1.40;;;20.90;99.90;;;;;;5081566;28;20051;-82
2023/09/13 03:56:35;;;;;;;2.92;1.40;;;20.90;99.90;;;;;;5089976;27;20050;-81
2023/09/13 03:59:00;;;;;;;3.58;1.60;;;20.90;99.90;;;;;;5112349;27;20122;-86
2023/09/13 04:01:26;;;;;;;4.07;1.50;;;20.90;99.90;;;;;;5120098;27;20038;-84
2023/09/13 04:03:52;;;;;;;5.85;1.80;;;20.80;99.90;;;;;;5097041;27;20039;-84
2023/09/13 04:06:18;;;;;;;5.57;1.90;;;20.80;99.90;;;;;;5081347;28;20833;-85
2023/09/13 04:08:50;;;;;;;5.45;1.70;;;20.60;99.90;;;;;;5108815;27;20039;-84
2023/09/13 04:11:16;;;;;;;5.65;1.90;;;20.70;99.90;;;;;;5098397;28;20031;-81
2023/09/13 04:13:41;;;;;;;4.53;1.48;;;20.60;99.90;;;;;;5112009;27;20143;-82
2023/09/13 04:16:08;;;;;;;6.93;1.58;;;20.60;99.90;;;;;;5103318;28;20658;-81
2023/09/13 04:18:33;;;;;;;8.02;2.10;;;20.60;99.90;;;;;;5123612;27;20037;-83
2023/09/13 04:20:59;;;;;;;6.63;1.80;;;20.60;99.90;;;;;;5109706;27;20043;-82
2023/09/13 04:23:25;;;;;;;5.68;1.80;;;20.60;99.90;;;;;;5093811;27;20042;-84
2023/09/13 04:25:51;;;;;;;4.70;1.80;;;20.50;99.90;;;;;;5112026;27;20071;-82
2023/09/13 04:28:17;;;;;;;4.43;1.75;;;20.60;99.90;;;;;;5096112;27;20415;-83
2023/09/13 04:30:43;;;;;;;4.20;1.88;;;20.50;99.90;;;;;;5112604;27;20042;-82
2023/09/13 04:33:08;;;;;;;7.60;1.83;;;20.50;99.90;;;;;;5101315;27;20401;-86
2023/09/13 04:35:34;;;;;;;8.63;2.53;;;20.40;99.90;;;;;;5077275;27;20050;-85
2023/09/13 04:38:06;;;;;;;5.63;1.85;;;20.40;99.90;;;;;;5109350;27;20731;-85
2023/09/13 04:40:32;;;;;;;8.32;2.60;;;20.30;99.90;;;;;;5131022;27;20043;-85
2023/09/13 04:43:06;;;;;;;3.03;1.50;;;20.30;99.90;;;;;;5123024;27;20510;-82
2023/09/13 04:45:33;;;;;;;7.18;2.03;;;20.00;99.90;;;;;;5124452;27;20460;-82
2023/09/13 04:47:58;;;;;;;7.20;2.10;;;20.00;99.90;;;;;;5073643;27;20117;-80
2023/09/13 04:50:26;;;;;;;9.25;2.85;;;19.90;99.90;;;;;;5105182;27;20729;-80
2023/09/13 04:52:51;;;;;;;6.80;1.90;;;19.80;99.90;;;;;;5073703;27;20180;-81
2023/09/13 04:55:19;;;;;;;5.10;2.22;;;19.90;99.90;;;;;;5089108;27;20121;-83
2023/09/13 04:57:45;;;;;;;7.18;2.00;;;19.70;99.90;;;;;;5102302;27;20047;-82
2023/09/13 05:00:14;;;;;;;4.25;2.03;;;19.70;99.90;;;;;;5109326;27;20035;-84
2023/09/13 05:02:40;;;;;;;6.10;1.90;;;19.90;99.90;;;;;;5129593;27;20050;-84
2023/09/13 05:05:06;;;;;;;5.40;2.03;;;19.70;99.90;;;;;;5094337;27;20046;-79
2023/09/13 05:07:32;;;;;;;7.40;2.15;;;19.80;99.90;;;;;;5079816;27;20064;-79
2023/09/13 05:09:58;;;;;;;8.30;2.40;;;19.70;99.90;;;;;;5117140;27;20077;-79
2023/09/13 05:12:23;;;;;;;7.30;2.25;;;19.70;99.90;;;;;;5100978;27;20039;-81
2023/09/13 05:14:49;;;;;;;5.20;2.00;;;19.70;99.90;;;;;;5090093;27;20043;-81
2023/09/13 05:17:15;;;;;;;5.53;1.83;;;19.30;99.90;;;;;;5120259;27;20047;-81
2023/09/13 05:19:41;;;;;;;5.60;2.30;;;19.60;99.90;;;;;;5095391;27;20043;-81
2023/09/13 05:22:06;;;;;;;7.40;1.83;;;19.10;99.90;;;;;;5114406;27;20550;-78
2023/09/13 05:24:32;;;;;;;5.65;2.25;;;19.10;99.90;;;;;;5100952;27;20451;-78
2023/09/13 05:26:58;;;;;;;7.47;2.00;;;19.20;99.90;;;;;;5110837;27;20030;-78
2023/09/13 05:29:23;;;;;;;8.25;2.20;;;18.90;99.90;;;;;;5094113;27;20042;-78
2023/09/13 05:31:49;;;;;;;6.90;1.77;;;19.10;99.90;;;;;;5098407;27;20083;-79
2023/09/13 05:34:15;;;;;;;10.05;2.30;;;19.30;99.90;;;;;;5110726;27;20111;-78
2023/09/13 05:36:41;;;;;;;9.32;1.85;;;19.10;99.90;;;;;;5120010;27;20049;-80
2023/09/13 05:39:08;;;;;;;5.25;1.70;;;18.90;99.90;;;;;;5101424;27;20070;-81
2023/09/13 05:41:34;;;;;;;7.80;2.65;;;19.40;99.90;;;;;;5122563;27;20143;-80
2023/09/13 05:43:59;;;;;;;9.32;2.40;;;19.30;99.90;;;;;;5103187;27;20494;-79
2023/09/13 05:46:25;;;;;;;8.70;2.20;;;19.10;99.90;;;;;;5113267;27;20027;-80
2023/09/13 05:48:51;;;;;;;7.43;2.30;;;19.10;99.90;;;;;;5105632;27;20035;-79
2023/09/13 05:51:19;;;;;;;6.38;2.17;;;19.30;99.90;;;;;;5125812;27;20051;-78
2023/09/13 05:53:45;;;;;;;7.25;2.38;;;19.40;99.90;;;;;;5121809;27;20378;-79
2023/09/13 05:56:11;;;;;;;7.50;2.03;;;19.10;99.90;;;;;;5114038;27;20050;-80
2023/09/13 05:58:38;;;;;;;7.78;2.13;;;19.20;99.90;;;;;;5111072;27;20045;-80
2023/09/13 06:01:05;;;;;;;10.00;2.45;;;19.10;99.90;;;;;;5083024;27;20049;-82
2023/09/13 06:03:32;;;;;;;8.57;2.50;;;18.90;99.90;;;;;;5101072;27;20035;-83
2023/09/13 06:05:58;;;;;;;7.53;2.67;;;19.60;99.90;;;;;;5091351;27;20059;-82
2023/09/13 06:08:23;;;;;;;16.08;2.78;;;19.00;99.90;;;;;;5097098;27;20119;-80
2023/09/13 06:10:49;;;;;;;11.30;2.60;;;19.30;99.90;;;;;;5103453;27;20080;-81
2023/09/13 06:13:15;;;;;;;9.65;2.63;;;19.20;99.90;;;;;;5099835;27;20042;-82
2023/09/13 06:15:41;;;;;;;11.63;3.13;;;19.10;99.90;;;;;;5080483;27;20643;-81
2023/09/13 06:18:08;;;;;;;8.27;2.63;;;19.00;99.90;;;;;;5108683;27;20039;-83
2023/09/13 06:20:34;;;;;;;10.10;3.20;;;19.60;99.90;;;;;;5114923;27;20130;-81
2023/09/13 06:23:00;;;;;;;9.18;2.60;;;19.30;99.90;;;;;;5089903;27;20134;-82
2023/09/13 06:25:25;;;;;;;11.15;3.65;;;19.30;99.90;;;;;;5104058;27;20031;-80
2023/09/13 06:27:51;;;;;;;12.15;2.63;;;19.70;99.90;;;;;;5106225;27;20039;-82
2023/09/13 06:30:17;;;;;;;11.30;3.63;;;19.10;99.90;;;;;;5098461;27;20035;-81
2023/09/13 06:32:43;;;;;;;15.82;3.65;;;18.90;99.90;;;;;;5104279;27;20047;-80
2023/09/13 06:35:13;;;;;;;10.32;2.58;;;19.60;99.90;;;;;;5111918;27;20064;-78
2023/09/13 06:37:40;;;;;;;9.48;3.13;;;19.60;99.90;;;;;;5112858;27;20154;-80
2023/09/13 06:40:06;;;;;;;9.68;3.35;;;19.90;99.90;;;;;;5106972;27;20037;-84
2023/09/13 06:42:32;;;;;;;9.80;3.45;;;19.70;99.90;;;;;;5097492;27;20047;-80
2023/09/13 06:44:59;;;;;;;10.70;3.03;;;19.10;99.90;;;;;;5103564;27;20391;-80
2023/09/13 06:47:28;;;;;;;12.20;2.80;;;19.20;99.90;;;;;;5103562;27;20043;-81
2023/09/13 06:49:54;;;;;;;13.25;2.70;;;19.90;99.90;;;;;;5103406;27;20651;-81
2023/09/13 06:52:20;;;;;;;12.65;3.42;;;20.00;99.90;;;;;;5092379;28;20051;-81
2023/09/13 06:54:46;;;;;;;9.85;2.90;;;19.50;99.90;;;;;;5068522;27;20545;-81
2023/09/13 06:57:12;;;;;;;9.95;3.05;;;19.20;99.90;;;;;;5114408;27;20394;-83
2023/09/13 06:59:38;;;;;;;11.18;3.33;;;19.90;99.90;;;;;;5099200;27;20078;-81
2023/09/13 07:02:05;;;;;;;9.68;2.85;;;19.50;99.90;;;;;;5149309;27;20034;-83
2023/09/13 07:04:30;;;;;;;11.50;2.85;;;20.00;99.90;;;;;;5139732;27;20071;-83
2023/09/13 07:06:56;;;;;;;8.57;2.30;;;19.80;99.90;;;;;;5113045;27;20066;-81
2023/09/13 07:09:22;;;;;;;12.23;3.10;;;19.80;99.90;;;;;;5093473;28;20039;-80
2023/09/13 07:11:48;;;;;;;9.02;3.05;;;19.30;99.90;;;;;;5093968;27;20034;-83
2023/09/13 07:14:13;;;;;;;10.68;2.92;;;19.50;99.90;;;;;;5091502;28;20047;-80
2023/09/13 07:16:39;;;;;;;10.68;3.58;;;19.90;99.90;;;;;;5111118;27;20058;-80
2023/09/13 07:19:05;;;;;;;6.65;2.80;;;19.20;99.90;;;;;;5091714;28;20043;-81
2023/09/13 07:21:30;;;;;;;8.40;2.88;;;19.70;99.90;;;;;;5075856;28;20039;-80
2023/09/13 07:23:56;;;;;;;7.45;2.55;;;19.30;99.90;;;;;;5085393;28;20423;-81
2023/09/13 07:26:22;;;;;;;8.05;3.30;;;19.40;99.90;;;;;;5111089;27;20050;-82
2023/09/13 07:28:47;;;;;;;11.52;2.88;;;19.70;99.90;;;;;;5093548;28;20038;-82
2023/09/13 07:31:13;;;;;;;7.45;2.70;;;19.60;99.90;;;;;;5111277;27;20076;-81
2023/09/13 07:33:39;;;;;;;6.22;2.22;;;19.50;99.90;;;;;;5069433;28;20044;-80
2023/09/13 07:36:05;;;;;;;6.25;2.38;;;19.50;99.90;;;;;;5092490;27;20398;-84
2023/09/13 07:38:31;;;;;;;6.80;2.20;;;19.50;99.90;;;;;;5091260;27;20388;-80
2023/09/13 07:40:57;;;;;;;7.30;2.40;;;19.90;99.90;;;;;;5112094;28;20088;-80
2023/09/13 07:43:22;;;;;;;6.53;2.42;;;20.00;99.90;;;;;;5113307;27;20038;-82
2023/09/13 07:45:49;;;;;;;9.32;2.58;;;20.00;99.90;;;;;;5110517;28;20031;-81
2023/09/13 07:48:15;;;;;;;6.35;2.00;;;19.80;99.90;;;;;;5083163;28;20040;-85
2023/09/13 07:50:40;;;;;;;6.25;2.30;;;19.90;99.90;;;;;;5107985;28;20043;-81
2023/09/13 07:53:10;;;;;;;5.43;1.98;;;19.60;99.90;;;;;;5097144;28;20047;-81
2023/09/13 07:55:37;;;;;;;6.30;2.15;;;20.20;99.90;;;;;;5138206;27;20575;-81
2023/09/13 07:58:03;;;;;;;11.55;2.40;;;20.00;99.90;;;;;;5107293;28;20371;-80
2023/09/13 08:00:29;;;;;;;7.63;2.38;;;20.30;99.90;;;;;;5115114;27;20055;-80
2023/09/13 08:02:55;;;;;;;6.15;2.05;;;20.30;99.90;;;;;;5095763;27;20432;-82
2023/09/13 08:05:21;;;;;;;6.55;1.90;;;20.30;99.90;;;;;;5125514;27;20096;-79
2023/09/13 08:07:48;;;;;;;6.30;2.33;;;19.90;99.90;;;;;;5137569;27;20039;-84
2023/09/13 08:10:14;;;;;;;9.45;2.95;;;20.10;99.90;;;;;;5079235;28;20528;-83
2023/09/13 08:12:41;;;;;;;6.68;2.47;;;20.20;99.90;;;;;;5086243;28;20036;-83
2023/09/13 08:15:07;;;;;;;6.47;2.17;;;20.30;99.90;;;;;;5106700;27;20030;-83
2023/09/13 08:17:39;;;;;;;5.32;2.00;;;20.50;99.90;;;;;;5125040;27;20079;-83
2023/09/13 08:20:07;;;;;;;7.97;2.40;;;20.50;99.90;;;;;;5099950;27;20087;-83
2023/09/13 08:22:57;;;;;;;8.60;2.25;;;20.40;99.90;;;;;;5105061;27;20051;-84
2023/09/13 08:25:25;;;;;;;8.48;2.33;;;20.10;99.90;;;;;;5101407;27;20039;-84
2023/09/13 08:28:14;;;;;;;7.88;2.13;;;20.60;99.90;;;;;;5072415;28;20032;-85
2023/09/13 08:30:58;;;;;;;6.65;2.22;;;20.40;99.90;;;;;;5121373;27;20050;-83
2023/09/13 08:33:23;;;;;;;9.18;2.20;;;20.40;99.90;;;;;;5121172;27;20069;-85
2023/09/13 08:35:49;;;;;;;6.45;2.28;;;20.90;99.90;;;;;;5084133;28;20043;-82
2023/09/13 08:38:18;;;;;;;6.57;2.22;;;20.80;99.90;;;;;;5113791;27;20107;-71
2023/09/13 08:40:49;;;;;;;3.67;1.95;;;20.60;99.90;;;;;;5117860;27;20051;-81
2023/09/13 08:43:18;;;;;;;6.40;2.53;;;20.70;99.90;;;;;;5092909;28;20071;-83
2023/09/13 08:46:06;;;;;;;6.10;2.15;;;20.80;99.90;;;;;;5098198;27;20069;-82
2023/09/13 08:48:38;;;;;;;6.07;2.30;;;20.80;99.90;;;;;;5104595;27;20076;-82
2023/09/13 08:51:10;;;;;;;6.78;2.42;;;20.90;99.90;;;;;;5113462;27;20046;-81
2023/09/13 08:53:37;;;;;;;7.20;2.38;;;21.00;99.90;;;;;;5112032;27;20126;-80
2023/09/13 08:56:21;;;;;;;6.15;2.33;;;20.90;99.90;;;;;;5111639;27;20050;-81
2023/09/13 08:58:48;;;;;;;8.15;1.90;;;20.90;99.90;;;;;;5112165;27;20555;-81
2023/09/13 09:01:24;;;;;;;7.70;2.42;;;20.90;99.90;;;;;;5112586;27;20035;-79
2023/09/13 09:04:11;;;;;;;6.57;2.10;;;21.10;99.90;;;;;;5111132;28;20051;-82
2023/09/13 09:06:44;;;;;;;8.75;2.47;;;21.20;99.90;;;;;;5120582;27;20031;-81
2023/09/13 09:09:12;;;;;;;7.00;2.35;;;21.10;99.90;;;;;;5089544;28;20039;-81
2023/09/13 09:11:41;;;;;;;5.72;2.17;;;21.00;99.90;;;;;;5078553;28;20036;-81
2023/09/13 09:14:10;;;;;;;8.68;2.40;;;20.90;99.90;;;;;;5121995;27;20667;-83
2023/09/13 09:16:44;;;;;;;15.15;2.72;;;20.80;99.90;;;;;;5115883;27;20130;-85
2023/09/13 09:19:22;;;;;;;7.78;2.50;;;20.90;99.90;;;;;;5105702;27;20049;-84
2023/09/13 09:21:53;;;;;;;8.15;2.50;;;20.60;99.90;;;;;;5137294;27;20041;-84
2023/09/13 09:24:19;;;;;;;10.70;2.70;;;20.60;99.90;;;;;;5097298;28;20520;-84
2023/09/13 09:26:55;;;;;;;5.75;2.05;;;20.60;99.90;;;;;;5121309;27;20121;-82
2023/09/13 09:29:36;;;;;;;7.45;2.00;;;20.40;99.90;;;;;;5111569;27;20059;-84
2023/09/13 09:32:05;;;;;;;12.93;2.97;;;20.40;99.90;;;;;;5112451;27;20035;-88
2023/09/13 09:34:31;;;;;;;4.80;2.28;;;20.40;99.90;;;;;;5095099;28;20524;-82
2023/09/13 09:37:04;;;;;;;9.35;2.40;;;20.60;99.90;;;;;;5094649;27;20494;-83
2023/09/13 09:39:30;;;;;;;7.22;2.47;;;20.40;99.90;;;;;;5094109;28;20048;-82
2023/09/13 09:41:59;;;;;;;7.47;2.55;;;20.60;99.90;;;;;;5061730;27;20051;-86
2023/09/13 09:44:31;;;;;;;9.98;2.40;;;20.50;99.90;;;;;;5112160;27;20039;-87
2023/09/13 09:47:03;;;;;;;9.25;2.33;;;20.40;99.90;;;;;;5114539;27;20031;-86
2023/09/13 09:49:29;;;;;;;6.80;2.15;;;20.10;99.90;;;;;;5091020;28;20410;-84
2023/09/13 09:51:56;;;;;;;8.20;2.70;;;20.20;99.90;;;;;;5063031;28;20036;-83
2023/09/13 09:54:22;;;;;;;9.05;2.20;;;20.40;99.90;;;;;;5076661;28;20043;-81
2023/09/13 09:56:50;;;;;;;7.85;2.05;;;20.60;99.90;;;;;;5094947;28;20130;-84
2023/09/13 09:59:16;;;;;;;7.47;2.33;;;20.50;99.90;;;;;;5112825;27;20039;-84
2023/09/13 10:01:42;;;;;;;6.78;2.05;;;20.60;99.90;;;;;;5112195;27;20122;-82
2023/09/13 10:04:10;;;;;;;8.93;2.55;;;20.80;99.90;;;;;;5122811;27;20053;-82
2023/09/13 10:06:36;;;;;;;7.07;2.65;;;21.00;99.90;;;;;;5116392;27;20071;-83
2023/09/13 10:09:06;;;;;;;4.68;2.35;;;21.10;99.90;;;;;;5115910;27;20641;-83
2023/09/13 10:11:34;;;;;;;6.82;2.22;;;21.30;99.90;;;;;;5135176;27;20046;-86
2023/09/13 10:14:03;;;;;;;4.57;1.92;;;21.30;99.90;;;;;;5101481;27;20058;-85
2023/09/13 10:16:31;;;;;;;7.05;2.53;;;21.50;99.90;;;;;;5095389;28;20039;-80
2023/09/13 10:19:02;;;;;;;4.50;2.15;;;21.70;99.90;;;;;;5100967;28;20043;-84
2023/09/13 10:21:30;;;;;;;6.63;2.80;;;21.90;99.90;;;;;;5092359;28;20062;-85
2023/09/13 10:24:07;;;;;;;3.83;2.25;;;21.90;99.90;;;;;;5113861;27;20043;-82
2023/09/13 10:26:34;;;;;;;5.93;2.47;;;22.10;99.90;;;;;;5110123;27;20031;-82
2023/09/13 10:29:24;;;;;;;4.03;1.85;;;21.90;99.90;;;;;;5096633;28;20035;-81
2023/09/13 10:31:57;;;;;;;4.88;2.20;;;21.90;99.90;;;;;;5094788;28;20036;-85
2023/09/13 10:34:30;;;;;;;5.97;2.10;;;21.80;99.90;;;;;;5093886;28;20096;-84
2023/09/13 10:37:08;;;;;;;4.43;2.40;;;21.90;99.90;;;;;;5102749;27;20062;-82
2023/09/13 10:39:42;;;;;;;9.32;3.22;;;21.80;99.90;;;;;;5098120;27;20036;-82
2023/09/13 10:42:08;;;;;;;4.13;2.20;;;22.10;99.90;;;;;;5093300;28;20666;-81
2023/09/13 10:44:35;;;;;;;7.20;2.20;;;22.50;99.90;;;;;;5126630;27;20043;-82
2023/09/13 10:47:06;;;;;;;5.28;2.08;;;22.60;99.90;;;;;;5098322;28;20388;-82
2023/09/13 10:49:33;;;;;;;4.97;2.20;;;22.60;99.90;;;;;;5092189;28;20134;-78
2023/09/13 10:52:00;;;;;;;5.40;2.28;;;22.60;99.90;;;;;;5092143;28;20048;-78
2023/09/13 10:54:28;;;;;;;7.03;2.35;;;23.20;99.90;;;;;;5098025;27;20049;-78
2023/09/13 10:56:55;;;;;;;6.78;2.08;;;23.20;99.90;;;;;;5118098;27;20070;-79
2023/09/13 10:59:24;;;;;;;5.70;1.83;;;23.00;99.90;;;;;;5126708;27;20038;-79
2023/09/13 11:01:50;;;;;;;5.78;1.77;;;23.00;99.90;;;;;;5111089;27;20074;-80
2023/09/13 11:04:19;;;;;;;4.40;1.80;;;22.60;99.90;;;;;;5138381;27;20050;-79
2023/09/13 11:06:45;;;;;;;5.47;2.00;;;22.70;99.90;;;;;;5106592;27;20462;-79
2023/09/13 11:09:17;;;;;;;5.88;1.80;;;22.60;99.90;;;;;;5092507;28;20114;-79
2023/09/13 11:11:48;;;;;;;5.45;2.00;;;22.90;99.90;;;;;;5091748;28;20092;-79
2023/09/13 11:14:18;;;;;;;4.32;1.40;;;23.00;99.90;;;;;;5117348;27;20031;-79
2023/09/13 11:16:46;;;;;;;4.20;1.70;;;23.00;99.90;;;;;;5091879;28;20146;-80
2023/09/13 11:19:16;;;;;;;4.90;1.70;;;23.10;99.90;;;;;;5109996;27;20047;-80
2023/09/13 11:21:50;;;;;;;4.68;1.58;;;23.10;99.90;;;;;;5092333;28;20439;-78
2023/09/13 11:24:35;;;;;;;;;;;23.10;99.90;;;;;;5118131;27;20531;-79
2023/09/13 11:27:15;;;;;;;3.47;1.60;;;23.20;99.90;;;;;;5116863;27;19958;-79
2023/09/13 11:29:51;;;;;;;5.00;1.75;;;23.30;99.90;;;;;;5121793;28;20070;-79
2023/09/13 11:32:25;;;;;;;4.32;1.48;;;23.50;99.90;;;;;;5081473;28;20110;-78
2023/09/13 11:35:04;;;;;;;4.25;1.50;;;23.40;99.90;;;;;;5129427;27;20064;-78
2023/09/13 11:37:32;;;;;;;3.80;1.50;;;22.70;99.90;;;;;;5107099;28;20040;-79
2023/09/13 11:40:12;;;;;;;5.68;1.50;;;22.70;99.90;;;;;;5113008;27;20032;-80
2023/09/13 11:42:39;;;;;;;7.22;2.10;;;23.20;99.90;;;;;;5112547;28;20051;-79
2023/09/13 11:45:16;;;;;;;6.25;2.15;;;23.30;99.90;;;;;;5148781;27;20031;-81
2023/09/13 11:47:43;;;;;;;2.92;1.75;;;23.00;99.90;;;;;;5086152;28;20051;-82
2023/09/13 11:50:09;;;;;;;5.13;1.88;;;22.80;99.90;;;;;;5108262;27;20046;-80
2023/09/13 11:53:10;;;;;;;4.28;1.55;;;23.00;99.90;;;;;;5077053;28;20055;-81
2023/09/13 11:55:44;;;;;;;5.50;1.58;;;23.00;99.90;;;;;;5096153;27;20047;-80
2023/09/13 11:58:17;;;;;;;4.93;1.65;;;22.70;99.90;;;;;;5113579;27;20062;-80
2023/09/13 12:00:43;;;;;;;8.00;1.80;;;23.00;99.90;;;;;;5108381;27;20035;-82
2023/09/13 12:03:15;;;;;;;6.70;1.27;;;23.30;99.90;;;;;;5099347;27;20482;-82
2023/09/13 12:05:41;;;;;;;6.70;1.48;;;23.40;99.90;;;;;;5101471;27;20084;-81
2023/09/13 12:08:27;;;;;;;6.85;2.30;;;23.30;99.90;;;;;;5096745;27;20157;-81
2023/09/13 12:10:57;;;;;;;4.22;1.58;;;23.00;99.90;;;;;;5113003;27;20074;-82
2023/09/13 12:13:46;;;;;;;3.75;1.50;;;22.60;99.90;;;;;;5103504;28;20035;-81
2023/09/13 12:16:13;;;;;;;6.85;1.92;;;22.40;99.90;;;;;;5121188;27;20112;-82
2023/09/13 12:18:40;;;;;;;5.57;1.92;;;22.30;99.90;;;;;;5115728;27;20413;-83
2023/09/13 12:21:10;;;;;;;4.68;1.65;;;22.20;99.90;;;;;;5130466;27;20095;-83
2023/09/13 12:24:01;;;;;;;4.45;1.80;;;22.20;99.90;;;;;;5111378;27;20126;-83
2023/09/13 12:26:33;;;;;;;6.88;1.30;;;22.40;99.90;;;;;;5110980;27;20114;-82
2023/09/13 12:28:58;;;;;;;3.35;1.30;;;22.30;99.90;;;;;;5094934;27;20493;-83
2023/09/13 12:31:24;;;;;;;5.38;1.30;;;22.40;99.90;;;;;;5114526;27;20122;-81
2023/09/13 12:33:53;;;;;;;4.43;1.70;;;22.30;99.90;;;;;;5094601;27;20431;-82
2023/09/13 12:36:22;;;;;;;5.05;2.08;;;22.30;99.90;;;;;;5110096;27;20044;-84
2023/09/13 12:38:58;;;;;;;11.13;1.92;;;22.30;99.90;;;;;;5106690;27;20043;-83
2023/09/13 12:41:47;;;;;;;3.58;1.52;;;22.40;99.90;;;;;;5111234;27;20364;-81
2023/09/13 12:44:18;;;;;;;9.07;1.98;;;22.20;99.90;;;;;;5112339;27;20062;-82
2023/09/13 12:46:43;;;;;;;5.68;1.88;;;22.00;99.90;;;;;;5078474;28;20043;-81
2023/09/13 12:49:11;;;;;;;6.45;1.90;;;22.00;99.90;;;;;;5118440;27;20039;-81
2023/09/13 12:51:37;;;;;;;3.60;1.40;;;22.00;99.90;;;;;;5114132;27;20513;-83
2023/09/13 12:54:39;;;;;;;7.30;1.70;;;21.80;99.90;;;;;;5105436;28;20044;-82